createdAt,value
2023-04-18T00:01:42.136Z,43.10
2023-04-18T00:04:09.024Z,43.07
2023-04-18T00:06:38.876Z,43.08
2023-04-18T00:09:05.529Z,43.06
2023-04-18T00:11:32.172Z,43.17
2023-04-18T00:13:59.401Z,43.08
2023-04-18T00:16:27.276Z,42.88
2023-04-18T00:18:54.274Z,42.77
2023-04-18T00:21:22.644Z,42.88
2023-04-18T00:23:49.262Z,43.01
2023-04-18T00:26:15.958Z,42.93
2023-04-18T00:28:42.520Z,43.11
2023-04-18T00:31:09.126Z,42.82
2023-04-18T00:33:35.786Z,42.91
2023-04-18T00:36:02.361Z,43.04
2023-04-18T00:38:28.939Z,43.10
2023-04-18T00:40:55.559Z,42.97
2023-04-18T00:43:25.246Z,43.26
2023-04-18T00:45:52.315Z,43.00
2023-04-18T00:48:18.906Z,43.37
2023-04-18T00:50:45.591Z,42.96
2023-04-18T00:53:12.183Z,43.08
2023-04-18T00:55:39.035Z,43.06
2023-04-18T00:58:06.269Z,43.02
2023-04-18T01:00:32.893Z,42.97
2023-04-18T01:02:59.838Z,42.92
2023-04-18T01:05:26.954Z,42.91
2023-04-18T01:07:58.727Z,42.74
2023-04-18T01:10:25.517Z,42.82
2023-04-18T01:13:09.819Z,43.29
2023-04-18T01:15:37.045Z,43.10
2023-04-18T01:18:03.851Z,42.85
2023-04-18T01:20:31.285Z,42.83
2023-04-18T01:22:58.630Z,42.93
2023-04-18T01:25:25.349Z,42.70
2023-04-18T01:27:54.126Z,42.80
2023-04-18T01:30:20.729Z,43.03
2023-04-18T01:32:47.324Z,43.30
2023-04-18T01:35:13.945Z,42.75
2023-04-18T01:37:40.489Z,42.76
2023-04-18T01:40:07.741Z,42.60
2023-04-18T01:42:34.334Z,42.85
2023-04-18T01:45:00.951Z,42.97
2023-04-18T01:47:27.569Z,43.05
2023-04-18T01:49:54.249Z,42.80
2023-04-18T01:52:20.898Z,43.27
2023-04-18T01:54:47.481Z,43.22
2023-04-18T01:57:14.042Z,43.04
2023-04-18T01:59:40.662Z,42.76
2023-04-18T02:02:08.000Z,42.53
2023-04-18T02:04:34.634Z,42.66
2023-04-18T02:07:01.209Z,42.88
2023-04-18T02:09:27.799Z,42.94
2023-04-18T02:11:56.345Z,42.57
2023-04-18T02:14:22.904Z,42.46
2023-04-18T02:16:49.556Z,42.82
2023-04-18T02:19:16.155Z,42.80
2023-04-18T02:21:44.476Z,42.77
2023-04-18T02:24:11.150Z,42.60
2023-04-18T02:26:37.782Z,42.65
2023-04-18T02:29:04.346Z,42.62
2023-04-18T02:31:32.162Z,42.46
2023-04-18T02:33:58.735Z,42.71
2023-04-18T02:36:27.265Z,42.79
2023-04-18T02:38:54.741Z,42.32
2023-04-18T02:41:21.303Z,42.62
2023-04-18T02:43:47.904Z,42.73
2023-04-18T02:46:14.510Z,42.71
2023-04-18T02:48:41.140Z,42.82
2023-04-18T02:51:08.572Z,43.05
2023-04-18T02:53:35.460Z,42.67
2023-04-18T02:56:02.291Z,42.74
2023-04-18T02:58:29.406Z,42.62
2023-04-18T03:00:57.999Z,42.73
2023-04-18T03:03:24.665Z,42.28
2023-04-18T03:05:51.320Z,42.74
2023-04-18T03:08:17.874Z,42.79
2023-04-18T03:10:44.415Z,42.87
2023-04-18T03:13:10.946Z,42.89
2023-04-18T03:15:37.627Z,42.97
2023-04-18T03:18:05.121Z,42.48
2023-04-18T03:20:31.704Z,42.61
2023-04-18T03:22:58.242Z,42.89
2023-04-18T03:25:24.843Z,42.89
2023-04-18T03:27:51.529Z,42.76
2023-04-18T03:30:18.158Z,42.80
2023-04-18T03:32:46.612Z,42.68
2023-04-18T03:35:13.241Z,42.83
2023-04-18T03:37:40.021Z,42.92
2023-04-18T03:40:07.079Z,42.69
2023-04-18T03:42:33.628Z,42.54
2023-04-18T03:45:00.189Z,43.09
2023-04-18T03:47:26.753Z,42.83
2023-04-18T03:49:54.403Z,42.63
2023-04-18T03:52:21.075Z,42.86
2023-04-18T03:54:47.616Z,42.85
2023-04-18T03:57:14.245Z,43.13
2023-04-18T03:59:41.418Z,42.83
2023-04-18T04:02:08.098Z,42.96
2023-04-18T04:04:34.826Z,42.88
2023-04-18T04:07:01.628Z,42.81
2023-04-18T04:09:28.191Z,42.83
2023-04-18T04:11:54.745Z,43.11
2023-04-18T04:14:22.725Z,42.85
2023-04-18T04:16:49.351Z,42.82
2023-04-18T04:19:15.990Z,42.73
2023-04-18T04:21:42.537Z,42.75
2023-04-18T04:24:09.485Z,43.16
2023-04-18T04:26:36.167Z,43.24
2023-04-18T04:29:03.642Z,43.11
2023-04-18T04:31:30.219Z,42.96
2023-04-18T04:33:56.836Z,42.73
2023-04-18T04:36:24.759Z,42.90
2023-04-18T04:38:52.311Z,42.74
2023-04-18T04:41:18.905Z,42.66
2023-04-18T04:43:46.647Z,42.97
2023-04-18T04:46:14.832Z,43.03
2023-04-18T04:48:42.276Z,42.77
2023-04-18T04:51:08.884Z,42.89
2023-04-18T04:53:35.564Z,42.97
2023-04-18T04:56:02.145Z,43.03
2023-04-18T04:58:29.042Z,42.87
2023-04-18T05:00:55.859Z,42.84
2023-04-18T05:03:22.619Z,42.90
2023-04-18T05:05:49.370Z,43.07
2023-04-18T05:08:15.988Z,43.10
2023-04-18T05:10:43.315Z,42.79
2023-04-18T05:13:10.006Z,42.91
2023-04-18T05:15:36.611Z,42.51
2023-04-18T05:18:03.412Z,42.87
2023-04-18T05:20:30.005Z,42.95
2023-04-18T05:22:56.658Z,43.00
2023-04-18T05:25:23.277Z,43.18
2023-04-18T05:27:50.638Z,43.10
2023-04-18T05:30:17.579Z,43.13
2023-04-18T05:32:44.336Z,42.74
2023-04-18T05:35:10.910Z,42.95
2023-04-18T05:37:37.499Z,43.13
2023-04-18T05:40:05.435Z,43.01
2023-04-18T05:42:32.043Z,42.99
2023-04-18T05:44:58.626Z,43.17
2023-04-18T05:47:28.355Z,42.94
2023-04-18T05:49:55.442Z,43.09
2023-04-18T05:52:22.100Z,42.94
2023-04-18T05:54:48.661Z,43.17
2023-04-18T05:57:15.235Z,43.11
2023-04-18T05:59:41.813Z,43.15
2023-04-18T06:02:13.314Z,43.56
2023-04-18T06:04:42.097Z,43.73
2023-04-18T06:07:09.314Z,43.75
2023-04-18T06:09:36.059Z,43.53
2023-04-18T06:12:02.622Z,43.51
2023-04-18T06:14:29.342Z,43.55
2023-04-18T06:16:55.903Z,43.61
2023-04-18T06:19:22.456Z,43.24
2023-04-18T06:21:49.453Z,43.16
2023-04-18T06:24:16.323Z,43.27
2023-04-18T06:26:43.210Z,43.25
2023-04-18T06:29:09.784Z,43.39
2023-04-18T06:31:36.405Z,42.86
2023-04-18T06:34:03.426Z,43.25
2023-04-18T06:36:30.046Z,42.98
2023-04-18T06:38:56.654Z,43.51
2023-04-18T06:41:23.257Z,43.65
2023-04-18T06:44:02.774Z,43.21
2023-04-18T06:46:30.677Z,43.31
2023-04-18T06:48:57.343Z,43.27
2023-04-18T06:51:23.935Z,43.64
2023-04-18T06:53:52.873Z,43.61
2023-04-18T06:56:22.742Z,43.49
2023-04-18T06:58:49.840Z,43.14
2023-04-18T07:01:16.511Z,43.00
2023-04-18T07:03:43.362Z,42.77
2023-04-18T07:06:10.960Z,42.79
2023-04-18T07:08:38.022Z,42.79
2023-04-18T07:11:05.845Z,42.76
2023-04-18T07:13:32.386Z,42.88
2023-04-18T07:15:59.013Z,42.59
2023-04-18T07:18:34.716Z,42.86
2023-04-18T07:21:03.679Z,42.92
2023-04-18T07:23:30.270Z,43.01
2023-04-18T07:25:58.635Z,42.68
2023-04-18T07:28:25.257Z,42.99
2023-04-18T07:30:51.873Z,42.88
2023-04-18T07:33:18.418Z,42.96
2023-04-18T07:35:46.656Z,43.41
2023-04-18T07:38:13.242Z,43.43
2023-04-18T07:40:39.838Z,43.26
2023-04-18T07:43:06.414Z,43.50
2023-04-18T07:45:35.727Z,43.17
2023-04-18T07:48:02.565Z,43.54
2023-04-18T07:50:29.236Z,43.65
2023-04-18T07:52:55.831Z,43.30
2023-04-18T07:55:22.441Z,43.08
2023-04-18T07:57:50.467Z,43.33
2023-04-18T08:00:18.260Z,43.02
2023-04-18T08:02:45.264Z,42.92
2023-04-18T08:05:12.201Z,42.87
2023-04-18T08:07:38.841Z,42.80
2023-04-18T08:10:05.879Z,42.99
2023-04-18T08:12:32.496Z,42.85
2023-04-18T08:14:59.135Z,42.97
2023-04-18T08:17:25.749Z,42.78
2023-04-18T08:19:52.322Z,42.57
2023-04-18T08:22:18.886Z,42.26
2023-04-18T08:24:57.473Z,42.80
2023-04-18T08:27:31.465Z,43.27
2023-04-18T08:29:58.289Z,43.47
2023-04-18T08:32:24.952Z,43.38
2023-04-18T08:34:51.597Z,43.55
2023-04-18T08:37:18.278Z,43.56
2023-04-18T08:39:45.101Z,43.74
2023-04-18T08:42:16.009Z,43.59
2023-04-18T08:44:43.169Z,43.54
2023-04-18T08:47:11.053Z,43.71
2023-04-18T08:49:38.194Z,43.51
2023-04-18T08:52:11.215Z,43.63
2023-04-18T08:54:38.734Z,43.59
2023-04-18T08:57:12.567Z,43.63
2023-04-18T08:59:40.073Z,43.38
2023-04-18T09:02:08.931Z,42.98
2023-04-18T09:04:39.628Z,43.35
2023-04-18T09:07:10.815Z,43.21
2023-04-18T09:09:46.384Z,43.15
2023-04-18T09:12:15.445Z,43.01
2023-04-18T09:14:45.973Z,43.14
2023-04-18T09:17:21.878Z,42.77
2023-04-18T09:19:49.065Z,42.95
2023-04-18T09:22:17.016Z,42.74
2023-04-18T09:24:53.267Z,42.57
2023-04-18T09:27:22.905Z,42.47
2023-04-18T09:29:56.513Z,42.31
2023-04-18T09:32:27.118Z,42.27
2023-04-18T09:34:58.310Z,42.00
2023-04-18T09:37:26.035Z,41.79
2023-04-18T09:39:52.856Z,41.86
2023-04-18T09:42:19.851Z,41.65
2023-04-18T09:45:01.274Z,41.21
2023-04-18T09:47:28.475Z,41.54
2023-04-18T09:49:55.624Z,41.45
2023-04-18T09:52:25.447Z,41.48
2023-04-18T09:54:58.352Z,41.27
2023-04-18T09:57:27.606Z,41.48
2023-04-18T10:00:00.141Z,41.22
2023-04-18T10:02:29.163Z,40.84
2023-04-18T10:04:57.362Z,40.62
2023-04-18T10:07:24.713Z,40.69
2023-04-18T10:09:51.517Z,40.82
2023-04-18T10:12:18.764Z,40.55
2023-04-18T10:14:50.197Z,40.47
2023-04-18T10:17:20.697Z,40.50
2023-04-18T10:20:04.022Z,40.88
2023-04-18T10:22:30.838Z,40.50
2023-04-18T10:24:57.553Z,40.53
2023-04-18T10:27:49.002Z,40.47
2023-04-18T10:30:18.855Z,40.49
2023-04-18T10:32:48.272Z,40.07
2023-04-18T10:35:17.499Z,40.18
2023-04-18T10:37:51.512Z,40.11
2023-04-18T10:40:32.473Z,39.96
2023-04-18T10:43:02.198Z,40.19
2023-04-18T10:45:38.239Z,39.96
2023-04-18T10:48:26.007Z,39.95
2023-04-18T10:51:14.499Z,39.98
2023-04-18T10:53:48.335Z,39.73
2023-04-18T10:56:17.950Z,39.62
2023-04-18T10:58:51.520Z,39.54
2023-04-18T11:01:31.716Z,39.86
2023-04-18T11:03:59.713Z,39.70
2023-04-18T11:06:30.338Z,39.38
2023-04-18T11:09:11.741Z,39.61
2023-04-18T11:11:38.368Z,39.61
2023-04-18T11:14:05.185Z,39.26
2023-04-18T11:16:33.596Z,39.43
2023-04-18T11:19:01.674Z,39.11
2023-04-18T11:21:30.623Z,38.95
2023-04-18T11:24:01.873Z,39.40
2023-04-18T11:26:29.093Z,39.30
2023-04-18T11:28:58.708Z,39.34
2023-04-18T11:31:25.564Z,39.44
2023-04-18T11:33:56.525Z,39.66
2023-04-18T11:36:26.509Z,39.24
2023-04-18T11:38:53.066Z,39.17
2023-04-18T11:41:19.617Z,38.99
2023-04-18T11:43:52.042Z,39.30
2023-04-18T11:46:18.701Z,39.19
2023-04-18T11:48:45.602Z,39.12
2023-04-18T11:51:34.081Z,39.42
2023-04-18T11:54:00.787Z,39.19
2023-04-18T11:56:27.372Z,39.25
2023-04-18T11:58:53.996Z,39.00
2023-04-18T12:01:22.630Z,38.89
2023-04-18T12:06:50.738Z,39.18
2023-04-18T12:09:17.973Z,39.15
2023-04-18T12:11:44.710Z,39.00
2023-04-18T12:14:21.662Z,39.01
2023-04-18T12:16:52.922Z,38.88
2023-04-18T12:19:20.861Z,39.08
2023-04-18T12:22:00.741Z,39.20
2023-04-18T12:24:29.947Z,38.98
2023-04-18T12:26:58.022Z,39.02
2023-04-18T12:29:30.028Z,38.85
2023-04-18T12:32:02.065Z,38.25
2023-04-18T12:34:28.677Z,38.72
2023-04-18T12:36:55.323Z,38.71
2023-04-18T12:39:21.952Z,38.50
2023-04-18T12:41:49.786Z,38.29
2023-04-18T12:44:24.640Z,38.55
2023-04-18T12:46:57.934Z,38.42
2023-04-18T12:49:27.653Z,38.67
2023-04-18T12:51:58.282Z,38.46
2023-04-18T12:54:27.438Z,38.67
2023-04-18T12:56:54.003Z,38.52
2023-04-18T12:59:20.588Z,38.85
2023-04-18T13:01:47.246Z,38.41
2023-04-18T13:04:14.108Z,38.85
2023-04-18T13:07:04.002Z,38.90
2023-04-18T13:09:33.626Z,38.72
2023-04-18T13:12:00.216Z,38.67
2023-04-18T13:14:26.754Z,38.73
2023-04-18T13:16:56.319Z,38.46
2023-04-18T13:19:26.206Z,38.78
2023-04-18T13:21:56.166Z,38.66
2023-04-18T13:24:22.723Z,38.70
2023-04-18T13:26:49.291Z,38.76
2023-04-18T13:29:16.156Z,38.66
2023-04-18T13:31:45.561Z,38.84
2023-04-18T13:34:12.134Z,39.14
2023-04-18T13:36:38.731Z,38.51
2023-04-18T13:39:05.881Z,39.10
2023-04-18T13:41:33.363Z,38.40
2023-04-18T13:44:00.002Z,38.56
2023-04-18T13:46:27.609Z,38.52
2023-04-18T13:48:54.279Z,38.35
2023-04-18T13:51:35.095Z,39.09
2023-04-18T13:54:01.922Z,39.53
2023-04-18T13:56:28.554Z,39.78
2023-04-18T13:59:01.000Z,39.12
2023-04-18T14:01:29.238Z,39.39
2023-04-18T14:03:56.105Z,39.31
2023-04-18T14:06:22.920Z,39.51
2023-04-18T14:08:51.132Z,39.15
2023-04-18T14:11:17.753Z,39.40
2023-04-18T14:13:44.378Z,39.68
2023-04-18T14:16:11.059Z,39.44
2023-04-18T14:18:38.563Z,39.26
2023-04-18T14:21:05.230Z,39.54
2023-04-18T14:23:31.891Z,39.56
2023-04-18T14:25:58.470Z,39.14
2023-04-18T14:28:26.395Z,39.47
2023-04-18T14:30:55.384Z,39.37
2023-04-18T14:33:21.985Z,39.36
2023-04-18T14:35:48.522Z,39.56
2023-04-18T14:38:15.549Z,39.51
2023-04-18T14:40:42.103Z,39.28
2023-04-18T14:43:08.663Z,39.16
2023-04-18T14:45:35.283Z,39.19
2023-04-18T14:48:02.009Z,39.52
2023-04-18T14:50:28.651Z,39.50
2023-04-18T14:52:55.268Z,39.43
2023-04-18T14:55:21.830Z,39.67
2023-04-18T14:57:48.364Z,39.62
2023-04-18T15:00:15.417Z,39.34
2023-04-18T15:02:42.194Z,39.71
2023-04-18T15:05:10.116Z,39.36
2023-04-18T15:07:37.922Z,39.33
2023-04-18T15:10:05.400Z,39.32
2023-04-18T15:12:32.576Z,39.46
2023-04-18T15:15:02.067Z,39.17
2023-04-18T15:17:29.086Z,39.62
2023-04-18T15:19:55.720Z,39.47
2023-04-18T15:22:22.857Z,39.41
2023-04-18T15:24:49.518Z,39.35
2023-04-18T15:27:16.168Z,39.40
2023-04-18T15:29:42.953Z,39.87
2023-04-18T15:32:10.191Z,39.79
2023-04-18T15:34:36.772Z,39.51
2023-04-18T15:37:03.377Z,39.67
2023-04-18T15:39:29.920Z,39.69
2023-04-18T15:41:56.970Z,39.69
2023-04-18T15:44:23.664Z,39.74
2023-04-18T15:46:50.821Z,39.80
2023-04-18T15:49:17.464Z,39.47
2023-04-18T15:51:44.186Z,39.72
2023-04-18T15:54:11.032Z,39.80
2023-04-18T15:56:37.693Z,39.82
2023-04-18T15:59:05.228Z,39.95
2023-04-18T16:01:33.094Z,39.80
2023-04-18T16:03:59.884Z,39.68
2023-04-18T16:06:26.634Z,39.72
2023-04-18T16:08:53.225Z,39.59
2023-04-18T16:11:20.550Z,39.86
2023-04-18T16:13:47.132Z,39.48
2023-04-18T16:16:13.742Z,39.92
2023-04-18T16:18:40.476Z,39.46
2023-04-18T16:21:07.049Z,39.63
2023-04-18T16:23:33.667Z,39.71
2023-04-18T16:26:00.332Z,39.73
2023-04-18T16:28:26.895Z,39.83
2023-04-18T16:30:55.530Z,39.95
2023-04-18T16:33:25.853Z,39.87
2023-04-18T16:35:53.075Z,39.72
2023-04-18T16:38:23.358Z,39.79
2023-04-18T16:40:49.968Z,39.40
2023-04-18T16:43:16.557Z,39.56
2023-04-18T16:45:43.137Z,39.51
2023-04-18T16:48:10.134Z,39.83
2023-04-18T16:50:36.765Z,39.79
2023-04-18T16:53:03.375Z,39.86
2023-04-18T16:55:29.933Z,39.39
2023-04-18T16:57:56.484Z,39.49
2023-04-18T17:00:23.034Z,39.59
2023-04-18T17:02:49.890Z,39.07
2023-04-18T17:05:16.857Z,39.63
2023-04-18T17:07:45.442Z,39.53
2023-04-18T17:10:12.039Z,39.43
2023-04-18T17:12:38.596Z,39.31
2023-04-18T17:15:05.729Z,39.61
2023-04-18T17:17:32.366Z,39.40
2023-04-18T17:19:58.968Z,39.41
2023-04-18T17:22:25.701Z,39.42
2023-04-18T17:24:52.303Z,39.15
2023-04-18T17:27:18.892Z,39.79
2023-04-18T17:29:45.643Z,39.75
2023-04-18T17:32:12.286Z,39.55
2023-04-18T17:34:38.905Z,39.58
2023-04-18T17:37:06.205Z,39.60
2023-04-18T17:42:00.261Z,39.43
2023-04-18T17:44:26.897Z,39.64
2023-04-18T17:46:54.668Z,39.50
2023-04-18T17:49:21.530Z,39.49
2023-04-18T17:51:54.802Z,39.55
2023-04-18T17:54:26.166Z,39.46
2023-04-18T17:56:52.730Z,39.38
2023-04-18T17:59:19.295Z,39.62
2023-04-18T18:01:46.237Z,39.36
2023-04-18T18:04:13.459Z,39.45
2023-04-18T18:06:43.658Z,39.41
2023-04-18T18:09:13.286Z,39.61
2023-04-18T18:11:40.098Z,39.72
2023-04-18T18:14:06.795Z,39.49
2023-04-18T18:16:33.444Z,39.61
2023-04-18T18:19:00.006Z,39.44
2023-04-18T18:21:27.170Z,39.66
2023-04-18T18:23:53.997Z,39.80
2023-04-18T18:26:20.674Z,39.35
2023-04-18T18:28:47.277Z,39.51
2023-04-18T18:31:13.901Z,39.70
2023-04-18T18:33:40.545Z,39.60
2023-04-18T18:36:07.280Z,39.77
2023-04-18T18:38:33.905Z,39.61
2023-04-18T18:41:03.049Z,39.90
2023-04-18T18:43:30.979Z,39.86
2023-04-18T18:45:57.618Z,39.67
2023-04-18T18:48:24.598Z,39.89
2023-04-18T18:50:53.984Z,40.11
2023-04-18T18:53:20.551Z,40.07
2023-04-18T18:55:47.270Z,39.92
2023-04-18T18:58:13.929Z,40.17
2023-04-18T19:00:40.514Z,40.25
2023-04-18T19:03:08.301Z,40.38
2023-04-18T19:05:35.214Z,40.37
2023-04-18T19:08:04.337Z,40.51
2023-04-18T19:10:30.956Z,40.36
2023-04-18T19:12:57.784Z,40.40
2023-04-18T19:15:24.453Z,40.17
2023-04-18T19:17:51.308Z,40.35
2023-04-18T19:20:18.156Z,40.52
2023-04-18T19:22:44.704Z,40.50
2023-04-18T19:25:11.245Z,40.42
2023-04-18T19:27:38.029Z,40.25
2023-04-18T19:30:04.960Z,40.41
2023-04-18T19:32:32.635Z,40.48
2023-04-18T19:34:59.715Z,40.40
2023-04-18T19:37:26.263Z,40.47
2023-04-18T19:39:52.831Z,40.56
2023-04-18T19:42:19.436Z,40.55
2023-04-18T19:44:46.085Z,40.48
2023-04-18T19:47:12.703Z,40.27
2023-04-18T19:49:39.380Z,40.35
2023-04-18T19:52:06.428Z,40.72
2023-04-18T19:54:36.248Z,40.39
2023-04-18T19:57:04.601Z,40.69
2023-04-18T19:59:31.174Z,40.65
2023-04-18T20:02:00.539Z,40.47
2023-04-18T20:04:28.995Z,40.48
2023-04-18T20:06:56.197Z,40.55
2023-04-18T20:09:22.780Z,40.64
2023-04-18T20:11:49.370Z,40.54
2023-04-18T20:14:15.957Z,40.70
2023-04-18T20:16:46.630Z,40.72
2023-04-18T20:19:13.772Z,40.74
2023-04-18T20:21:41.207Z,40.80
2023-04-18T20:24:09.682Z,40.86
2023-04-18T20:26:36.277Z,40.53
2023-04-18T20:29:03.901Z,40.67
2023-04-18T20:31:30.483Z,40.83
2023-04-18T20:33:57.036Z,40.73
2023-04-18T20:36:24.407Z,41.03
2023-04-18T20:38:50.967Z,41.00
2023-04-18T20:41:24.041Z,41.04
2023-04-18T20:43:53.687Z,40.89
2023-04-18T20:46:20.283Z,41.22
2023-04-18T20:48:46.928Z,41.34
2023-04-18T20:51:13.532Z,41.36
2023-04-18T20:53:40.267Z,41.74
2023-04-18T20:56:06.857Z,41.60
2023-04-18T20:58:33.443Z,41.56
2023-04-18T21:01:00.041Z,41.51
2023-04-18T21:03:26.831Z,41.56
2023-04-18T21:05:53.520Z,41.62
2023-04-18T21:08:20.197Z,41.77
2023-04-18T21:10:46.783Z,41.44
2023-04-18T21:13:13.358Z,41.49
2023-04-18T21:15:41.913Z,41.59
2023-04-18T21:18:08.553Z,41.62
2023-04-18T21:20:36.496Z,41.55
2023-04-18T21:23:03.360Z,41.58
2023-04-18T21:25:29.903Z,41.31
2023-04-18T21:27:56.453Z,41.61
2023-04-18T21:30:23.055Z,41.46
2023-04-18T21:32:51.501Z,41.52
2023-04-18T21:35:19.835Z,41.34
2023-04-18T21:37:48.121Z,41.73
2023-04-18T21:40:14.845Z,41.58
2023-04-18T21:42:41.456Z,41.47
2023-04-18T21:45:09.502Z,41.67
2023-04-18T21:47:36.142Z,41.22
2023-04-18T21:50:03.956Z,41.45
2023-04-18T21:52:30.510Z,41.41
2023-04-18T21:54:57.164Z,41.44
2023-04-18T21:57:23.727Z,41.42
2023-04-18T21:59:50.348Z,41.27
2023-04-18T22:02:17.003Z,41.25
2023-04-18T22:04:44.232Z,41.35
2023-04-18T22:07:12.323Z,41.19
2023-04-18T22:09:38.946Z,41.23
2023-04-18T22:12:05.633Z,41.27
2023-04-18T22:14:32.324Z,41.34
2023-04-18T22:16:59.736Z,41.12
2023-04-18T22:19:29.350Z,41.20
2023-04-18T22:21:56.198Z,41.24
2023-04-18T22:24:26.040Z,41.58
2023-04-18T22:26:53.173Z,41.26
2023-04-18T22:29:19.739Z,41.16
2023-04-18T22:31:46.285Z,41.27
2023-04-18T22:34:13.045Z,41.11
2023-04-18T22:36:39.882Z,41.39
2023-04-18T22:39:09.653Z,41.28
2023-04-18T22:41:45.446Z,41.15
2023-04-18T22:44:12.046Z,41.25
2023-04-18T22:46:38.904Z,40.89
2023-04-18T22:49:07.462Z,40.83
2023-04-18T22:52:04.431Z,41.11
2023-04-18T22:54:21.526Z,40.91
2023-04-18T22:56:50.991Z,40.84
2023-04-18T22:59:17.796Z,41.42
2023-04-18T23:01:44.372Z,41.03
2023-04-18T23:04:11.250Z,41.19
2023-04-18T23:06:44.310Z,41.13
2023-04-18T23:09:10.927Z,41.20
2023-04-18T23:11:40.690Z,40.95
2023-04-18T23:14:08.592Z,41.16
2023-04-18T23:16:35.161Z,41.08
2023-04-18T23:19:01.722Z,41.22
2023-04-18T23:21:28.875Z,40.78
2023-04-18T23:23:58.542Z,40.86
2023-04-18T23:26:25.478Z,40.86
2023-04-18T23:28:58.706Z,40.84
2023-04-18T23:31:28.146Z,41.19
2023-04-18T23:33:58.340Z,41.02
2023-04-18T23:36:25.856Z,40.96
2023-04-18T23:38:52.513Z,41.15
2023-04-18T23:41:19.055Z,40.88
2023-04-18T23:43:45.661Z,40.92
2023-04-18T23:46:13.113Z,40.94
2023-04-18T23:48:39.844Z,41.00
2023-04-18T23:51:06.397Z,40.88
2023-04-18T23:53:33.002Z,41.06
2023-04-18T23:55:59.554Z,40.88
2023-04-18T23:58:26.605Z,40.95
